Time;durP1;ratioP1;P1;durP2;ratioP2;P2;SDS_P1;SDS_P2;PMS_P1;PMS_P2;Temp;Humidity;BMP_temperature;BMP_pressure;BME280_temperature;BME280_humidity;BME280_pressure;Samples;Min_cycle;Max_cycle;Signal;HPM_P1;HPM_P2
2022/01/08 00:02:03;;;;;;;10.52;5.22;;;3.10;89.80;;;;;;5014834;28;20035;-74
2022/01/08 00:04:30;;;;;;;16.33;5.55;;;3.10;90.10;;;;;;5023966;28;20148;-72
2022/01/08 00:06:58;;;;;;;10.50;5.05;;;3.10;90.10;;;;;;5023678;28;20626;-72
2022/01/08 00:09:25;;;;;;;12.35;4.47;;;3.20;90.10;;;;;;5024339;28;20042;-72
2022/01/08 00:11:53;;;;;;;11.95;5.55;;;3.10;90.10;;;;;;5027206;28;20527;-72
2022/01/08 00:14:24;;;;;;;14.98;5.55;;;3.10;90.20;;;;;;5027366;28;20026;-73
2022/01/08 00:16:52;;;;;;;13.52;5.30;;;3.20;90.10;;;;;;5018077;28;20548;-73
2022/01/08 00:19:19;;;;;;;12.18;5.28;;;3.10;90.20;;;;;;5028792;28;20072;-72
2022/01/08 00:21:47;;;;;;;12.90;5.80;;;3.10;90.30;;;;;;5029489;28;20107;-71
2022/01/08 00:24:15;;;;;;;13.25;5.18;;;3.10;90.30;;;;;;5026958;28;20071;-74
2022/01/08 00:26:43;;;;;;;15.52;6.40;;;3.10;90.40;;;;;;5024574;28;20030;-75
2022/01/08 00:29:11;;;;;;;14.40;6.63;;;3.10;90.30;;;;;;5023121;28;20041;-71
2022/01/08 00:31:39;;;;;;;15.55;7.35;;;3.10;90.60;;;;;;5021260;28;20036;-73
2022/01/08 00:34:07;;;;;;;13.85;6.85;;;3.10;90.50;;;;;;5022916;28;20041;-73
2022/01/08 00:36:35;;;;;;;14.30;7.55;;;3.20;90.60;;;;;;5024249;28;20072;-72
2022/01/08 00:39:02;;;;;;;12.77;6.53;;;3.30;90.60;;;;;;5023562;28;20468;-72
2022/01/08 00:41:29;;;;;;;14.43;6.93;;;3.30;90.50;;;;;;5019078;28;20068;-72
2022/01/08 00:43:56;;;;;;;15.95;7.93;;;3.20;90.30;;;;;;5020720;28;20481;-71
2022/01/08 00:46:23;;;;;;;14.93;7.18;;;3.20;90.30;;;;;;5020955;28;20087;-72
2022/01/08 00:48:49;;;;;;;14.52;7.20;;;3.20;90.10;;;;;;5022202;28;20472;-71
2022/01/08 00:51:15;;;;;;;19.10;6.65;;;3.10;90.10;;;;;;5020579;28;20554;-71
2022/01/08 00:53:40;;;;;;;13.75;6.85;;;3.10;90.10;;;;;;5018042;28;20530;-70
2022/01/08 00:56:06;;;;;;;11.00;6.10;;;3.10;90.10;;;;;;5020364;28;20041;-71
2022/01/08 00:58:32;;;;;;;13.88;6.55;;;3.10;90.00;;;;;;5019987;28;20392;-74
2022/01/08 01:00:58;;;;;;;14.13;6.80;;;3.00;90.10;;;;;;5022450;28;20507;-74
2022/01/08 01:03:23;;;;;;;12.40;7.00;;;3.00;90.20;;;;;;5021905;28;20095;-71
2022/01/08 01:05:49;;;;;;;18.08;7.57;;;2.90;90.30;;;;;;5022764;28;20538;-71
2022/01/08 01:08:15;;;;;;;13.18;6.70;;;3.00;90.40;;;;;;5019590;28;20041;-72
2022/01/08 01:10:40;;;;;;;13.88;7.43;;;2.90;90.50;;;;;;5009947;28;20049;-72
2022/01/08 01:13:07;;;;;;;12.82;6.90;;;2.90;90.60;;;;;;5011037;28;20037;-71
2022/01/08 01:15:33;;;;;;;15.05;7.72;;;2.90;90.80;;;;;;5012457;28;20188;-72
2022/01/08 01:17:58;;;;;;;14.82;7.30;;;3.00;90.90;;;;;;5018929;28;20128;-72
2022/01/08 01:20:24;;;;;;;16.13;7.95;;;3.10;90.90;;;;;;5023014;28;20041;-74
2022/01/08 01:25:34;;;;;;;17.45;7.45;;;3.10;90.80;;;;;;5024178;28;20392;-70
2022/01/08 01:28:19;;;;;;;18.02;7.47;;;3.10;90.80;;;;;;5021253;28;20044;-71
2022/01/08 01:41:42;;;;;;;18.92;8.82;;;3.10;90.00;;;;;;5016862;28;20046;-71
2022/01/08 01:49:35;;;;;;;17.77;10.35;;;3.00;90.10;;;;;;5022740;28;20549;-74
2022/01/08 01:52:03;;;;;;;22.53;11.07;;;3.00;90.10;;;;;;5019799;28;20029;-73
2022/01/08 01:54:29;;;;;;;17.23;8.60;;;3.00;90.20;;;;;;5004342;28;20342;-72
2022/01/08 01:56:59;;;;;;;17.75;8.10;;;3.10;90.20;;;;;;5021467;28;20564;-72
2022/01/08 01:59:30;;;;;;;15.95;6.82;;;3.10;90.20;;;;;;5022386;28;20034;-76
2022/01/08 02:01:56;;;;;;;14.32;6.22;;;3.10;90.20;;;;;;5020846;28;20508;-71
2022/01/08 02:04:22;;;;;;;10.70;4.97;;;3.10;90.10;;;;;;5020961;28;20073;-72
2022/01/08 02:06:48;;;;;;;10.38;3.80;;;3.00;90.10;;;;;;5016667;28;20179;-71
2022/01/08 02:09:14;;;;;;;12.43;3.75;;;3.10;90.00;;;;;;5021593;28;20033;-70
2022/01/08 02:11:58;;;;;;;12.43;3.95;;;3.20;89.70;;;;;;5020579;28;20037;-71
2022/01/08 02:14:25;;;;;;;10.88;3.20;;;3.30;89.60;;;;;;5021401;28;20293;-76
2022/01/08 02:16:51;;;;;;;9.95;2.83;;;3.40;90.00;;;;;;5017105;28;20172;-73
2022/01/08 02:19:17;;;;;;;11.30;3.17;;;3.60;89.30;;;;;;5017354;28;20528;-75
2022/01/08 02:21:57;;;;;;;12.68;3.90;;;3.70;89.20;;;;;;5021963;28;20320;-71
2022/01/08 02:24:24;;;;;;;12.32;3.92;;;3.80;89.20;;;;;;5021431;28;20436;-71
2022/01/08 02:26:50;;;;;;;12.13;4.13;;;3.80;89.10;;;;;;5019191;28;20124;-71
2022/01/08 02:29:18;;;;;;;12.35;3.83;;;3.80;89.10;;;;;;5020699;28;20433;-71
2022/01/08 02:32:06;;;;;;;9.27;3.00;;;3.80;89.10;;;;;;5014925;28;20428;-72
2022/01/08 02:34:32;;;;;;;10.00;2.95;;;3.70;89.00;;;;;;5017118;28;20103;-71
2022/01/08 02:37:00;;;;;;;11.00;4.18;;;3.70;89.00;;;;;;5020902;28;20531;-74
2022/01/08 02:39:26;;;;;;;10.15;3.13;;;3.60;88.90;;;;;;5018713;28;20385;-72
2022/01/08 02:41:58;;;;;;;11.55;3.95;;;3.60;88.80;;;;;;5018573;28;20038;-72
2022/01/08 02:44:25;;;;;;;10.07;4.22;;;3.50;88.90;;;;;;5018062;28;20518;-72
2022/01/08 02:46:51;;;;;;;9.57;4.40;;;3.40;89.00;;;;;;5018501;28;20050;-73
2022/01/08 02:49:17;;;;;;;12.98;5.10;;;3.20;89.00;;;;;;5020577;28;20052;-73
2022/01/08 02:51:44;;;;;;;9.23;4.80;;;3.10;89.10;;;;;;5021185;28;20484;-71
2022/01/08 02:54:11;;;;;;;11.95;5.68;;;3.00;89.30;;;;;;5019435;28;20044;-74
2022/01/08 02:56:41;;;;;;;14.15;5.22;;;3.00;89.50;;;;;;5020184;28;20049;-71
2022/01/08 02:59:07;;;;;;;14.52;5.93;;;2.90;89.60;;;;;;5018236;28;20030;-75
2022/01/08 03:01:33;;;;;;;14.98;6.25;;;2.80;89.70;;;;;;5021706;28;20152;-72
2022/01/08 03:03:59;;;;;;;15.43;7.80;;;2.80;89.90;;;;;;5020664;28;20045;-70
2022/01/08 03:06:25;;;;;;;15.93;7.70;;;2.70;89.80;;;;;;5020846;28;20038;-71
2022/01/08 03:08:50;;;;;;;14.70;7.40;;;2.70;90.00;;;;;;5035653;28;20029;-72
2022/01/08 03:11:16;;;;;;;15.60;7.70;;;2.60;90.10;;;;;;5014048;28;20033;-73
2022/01/08 03:13:42;;;;;;;15.73;7.43;;;2.60;90.20;;;;;;5019941;28;20030;-72
2022/01/08 03:16:08;;;;;;;16.77;8.98;;;2.50;90.20;;;;;;5041700;28;20045;-74
2022/01/08 03:18:36;;;;;;;17.05;8.95;;;2.50;90.40;;;;;;5016173;28;20520;-71
2022/01/08 03:21:12;;;;;;;18.20;11.05;;;2.40;90.40;;;;;;5018076;28;20060;-71
2022/01/08 03:23:44;;;;;;;17.90;11.10;;;2.40;90.50;;;;;;5020771;28;20471;-72
2022/01/08 03:26:10;;;;;;;20.35;12.02;;;2.40;90.60;;;;;;5021837;28;20929;-72
2022/01/08 03:28:36;;;;;;;22.45;11.75;;;2.30;90.60;;;;;;5024025;28;20935;-73
2022/01/08 03:31:02;;;;;;;22.13;13.20;;;2.40;90.70;;;;;;5021966;28;20441;-72
2022/01/08 03:33:27;;;;;;;16.33;11.75;;;2.20;90.70;;;;;;5020136;28;20040;-74
2022/01/08 03:35:53;;;;;;;23.23;11.70;;;2.20;90.80;;;;;;5025503;28;20129;-71
2022/01/08 03:38:19;;;;;;;23.50;11.73;;;2.20;91.00;;;;;;5024590;28;20039;-71
2022/01/08 03:40:44;;;;;;;22.92;13.68;;;2.20;91.10;;;;;;5025429;28;20116;-71
2022/01/08 03:43:10;;;;;;;23.08;14.43;;;2.20;91.20;;;;;;5023304;28;20041;-74
2022/01/08 03:45:35;;;;;;;23.05;14.65;;;2.20;91.20;;;;;;5018396;28;20025;-72
2022/01/08 03:50:46;;;;;;;31.20;17.83;;;2.30;91.50;;;;;;5015053;28;20118;-73
2022/01/08 03:53:12;;;;;;;29.40;17.25;;;2.30;91.60;;;;;;5022071;28;20426;-72
2022/01/08 03:55:38;;;;;;;30.70;17.35;;;2.30;91.70;;;;;;5016874;28;20912;-72
2022/01/08 03:58:04;;;;;;;30.08;16.40;;;2.40;91.70;;;;;;5023401;28;20041;-71
2022/01/08 04:00:30;;;;;;;28.98;17.55;;;2.50;91.80;;;;;;5024167;28;20073;-72
2022/01/08 04:02:56;;;;;;;29.85;17.15;;;2.50;91.90;;;;;;5024122;28;20067;-75
2022/01/08 04:05:22;;;;;;;28.95;18.73;;;2.50;91.90;;;;;;5017620;28;20404;-72
2022/01/08 04:07:47;;;;;;;29.05;18.67;;;2.60;91.80;;;;;;5019813;28;20029;-71
2022/01/08 04:10:13;;;;;;;29.48;18.67;;;2.60;91.80;;;;;;5015549;28;20120;-70
2022/01/08 04:12:50;;;;;;;25.15;17.30;;;2.60;91.70;;;;;;5019652;28;20057;-73
2022/01/08 04:17:48;;;;;;;28.92;16.65;;;2.60;91.80;;;;;;5016786;28;20435;-70
2022/01/08 04:20:14;;;;;;;29.77;17.80;;;2.70;91.70;;;;;;5024210;28;20068;-70
2022/01/08 04:22:39;;;;;;;27.15;15.82;;;2.70;91.70;;;;;;5021355;28;20073;-74
2022/01/08 04:25:05;;;;;;;26.92;15.77;;;2.70;91.70;;;;;;5022703;28;20029;-72
2022/01/08 04:27:31;;;;;;;31.92;15.90;;;2.80;91.70;;;;;;5024808;28;20033;-71
2022/01/08 04:29:56;;;;;;;25.52;15.32;;;2.70;91.50;;;;;;5027229;28;20038;-71
2022/01/08 04:32:22;;;;;;;23.45;15.00;;;2.70;91.50;;;;;;5015662;28;20025;-74
2022/01/08 04:34:48;;;;;;;23.50;15.55;;;2.70;91.40;;;;;;5021511;28;20035;-71
2022/01/08 04:37:14;;;;;;;24.25;16.10;;;2.80;91.30;;;;;;5021758;28;20037;-72
2022/01/08 04:39:40;;;;;;;25.17;15.93;;;2.70;91.20;;;;;;5023638;28;20349;-71
2022/01/08 04:42:05;;;;;;;24.10;15.05;;;2.70;91.10;;;;;;5016578;28;20032;-73
2022/01/08 04:44:31;;;;;;;22.02;13.68;;;2.70;91.00;;;;;;5025734;28;20026;-71
2022/01/08 04:46:57;;;;;;;19.50;13.90;;;2.60;91.00;;;;;;5024441;28;20030;-72
2022/01/08 04:49:23;;;;;;;23.58;13.82;;;2.60;91.00;;;;;;5024626;28;20025;-72
2022/01/08 04:51:49;;;;;;;20.45;12.93;;;2.60;91.10;;;;;;5023903;28;20839;-70
2022/01/08 04:54:15;;;;;;;23.42;12.60;;;2.60;91.10;;;;;;5022824;28;20025;-70
2022/01/08 04:56:40;;;;;;;19.65;12.50;;;2.50;91.20;;;;;;5020790;28;20080;-76
2022/01/08 04:59:06;;;;;;;20.98;11.88;;;2.50;91.10;;;;;;5023991;28;20191;-73
2022/01/08 05:01:32;;;;;;;22.70;12.48;;;2.50;91.10;;;;;;5021227;28;20037;-71
2022/01/08 05:03:57;;;;;;;20.65;12.02;;;2.40;91.10;;;;;;5025943;28;20033;-71
2022/01/08 05:06:23;;;;;;;22.95;12.98;;;2.40;91.20;;;;;;5020344;28;20052;-72
2022/01/08 05:08:49;;;;;;;21.77;12.65;;;2.40;91.10;;;;;;5021603;28;20096;-71
2022/01/08 05:11:14;;;;;;;20.88;12.32;;;2.30;91.10;;;;;;5011024;28;20037;-71
2022/01/08 05:13:40;;;;;;;21.88;11.77;;;2.30;91.20;;;;;;5019806;28;20373;-76
2022/01/08 05:16:06;;;;;;;19.50;12.32;;;2.30;91.30;;;;;;5038800;28;20038;-71
2022/01/08 05:18:33;;;;;;;22.17;13.70;;;2.20;91.30;;;;;;5021404;28;20037;-71
2022/01/08 05:21:15;;;;;;;28.83;13.57;;;2.20;91.40;;;;;;5023295;28;20033;-73
2022/01/08 05:23:41;;;;;;;19.48;13.25;;;2.20;91.40;;;;;;5022731;28;20040;-72
2022/01/08 05:26:07;;;;;;;23.52;12.73;;;2.20;91.50;;;;;;5020780;28;20473;-71
2022/01/08 05:28:32;;;;;;;23.85;13.70;;;2.10;91.50;;;;;;5019661;28;20396;-73
2022/01/08 05:30:58;;;;;;;22.90;13.27;;;2.10;91.60;;;;;;5024342;28;20037;-72
2022/01/08 05:33:24;;;;;;;21.60;14.23;;;2.10;91.60;;;;;;5019953;28;20087;-70
2022/01/08 05:35:49;;;;;;;28.38;15.43;;;2.10;91.70;;;;;;5020858;28;20472;-72
2022/01/08 05:38:15;;;;;;;21.20;14.25;;;2.10;91.70;;;;;;5020657;28;20029;-72
2022/01/08 05:40:41;;;;;;;23.13;13.43;;;2.10;91.80;;;;;;5016901;28;20040;-71
2022/01/08 05:43:06;;;;;;;25.02;14.75;;;2.10;91.80;;;;;;5024661;28;20051;-72
2022/01/08 05:45:32;;;;;;;25.52;14.02;;;2.10;91.80;;;;;;5018390;28;20037;-72
2022/01/08 05:47:58;;;;;;;29.58;15.32;;;2.10;91.80;;;;;;5020480;28;20401;-72
2022/01/08 05:50:24;;;;;;;26.30;14.27;;;2.10;91.80;;;;;;5016101;28;20060;-72
2022/01/08 05:52:49;;;;;;;29.58;14.48;;;2.10;91.80;;;;;;5016427;28;20115;-73
2022/01/08 05:55:16;;;;;;;28.80;13.18;;;2.10;91.80;;;;;;5017194;28;20042;-70
2022/01/08 05:57:41;;;;;;;29.92;13.48;;;2.20;91.90;;;;;;5022170;28;20077;-73
2022/01/08 06:00:08;;;;;;;29.65;13.73;;;2.10;91.90;;;;;;5019231;28;20447;-75
2022/01/08 06:02:34;;;;;;;31.25;13.27;;;2.20;91.90;;;;;;5019222;28;20037;-72
2022/01/08 06:05:00;;;;;;;26.17;12.00;;;2.20;91.90;;;;;;5021925;28;20148;-72
2022/01/08 06:07:26;;;;;;;25.77;12.63;;;2.20;91.80;;;;;;5018275;28;20033;-72
2022/01/08 06:09:51;;;;;;;25.23;12.32;;;2.20;91.80;;;;;;5017861;28;21939;-72
2022/01/08 06:12:17;;;;;;;27.55;12.88;;;2.20;91.90;;;;;;5016981;28;20128;-72
2022/01/08 06:14:43;;;;;;;22.00;12.02;;;2.20;91.80;;;;;;5020649;28;20040;-73
2022/01/08 06:17:08;;;;;;;26.55;12.15;;;2.30;91.90;;;;;;5017946;28;20034;-72
2022/01/08 06:19:34;;;;;;;22.00;11.02;;;2.30;91.90;;;;;;5017478;28;20040;-75
2022/01/08 06:22:00;;;;;;;21.00;11.10;;;2.30;91.90;;;;;;5011989;28;20029;-72
2022/01/08 06:24:26;;;;;;;28.40;11.95;;;2.30;91.90;;;;;;5007955;28;21408;-71
2022/01/08 06:26:52;;;;;;;23.02;11.48;;;2.30;91.80;;;;;;5031088;28;21782;-73
2022/01/08 06:29:17;;;;;;;24.30;10.18;;;2.40;91.90;;;;;;5015566;28;20079;-73
2022/01/08 06:31:43;;;;;;;27.40;11.75;;;2.40;91.90;;;;;;5008810;28;20050;-74
2022/01/08 06:34:09;;;;;;;20.48;9.90;;;2.40;91.80;;;;;;5014808;28;20415;-72
2022/01/08 06:36:34;;;;;;;29.05;11.95;;;2.40;91.80;;;;;;5014998;28;20056;-71
2022/01/08 06:39:00;;;;;;;21.85;12.32;;;2.40;91.70;;;;;;5021231;28;20591;-73
2022/01/08 06:41:29;;;;;;;22.15;10.85;;;2.40;91.70;;;;;;5016193;28;20034;-74
2022/01/08 06:43:55;;;;;;;25.38;11.73;;;2.40;91.70;;;;;;5019339;28;20108;-75
2022/01/08 06:46:20;;;;;;;20.35;11.07;;;2.40;91.50;;;;;;5017999;28;20184;-72
2022/01/08 06:48:46;;;;;;;22.13;11.48;;;2.50;91.50;;;;;;5018531;28;20787;-71
2022/01/08 06:51:12;;;;;;;25.00;12.07;;;2.40;91.50;;;;;;5010275;28;20084;-71
2022/01/08 06:53:37;;;;;;;21.55;11.52;;;2.40;91.40;;;;;;5018003;28;20083;-71
2022/01/08 06:56:04;;;;;;;23.08;12.35;;;2.40;91.50;;;;;;5015073;28;20516;-72
2022/01/08 06:58:30;;;;;;;25.25;12.57;;;2.40;91.40;;;;;;5011927;28;20041;-73
2022/01/08 07:00:56;;;;;;;21.60;12.00;;;2.40;91.50;;;;;;5009831;28;20030;-72
2022/01/08 07:03:21;;;;;;;18.55;12.40;;;2.40;91.50;;;;;;5029554;28;20052;-72
2022/01/08 07:05:47;;;;;;;20.98;11.15;;;2.40;91.60;;;;;;5012882;28;20038;-74
2022/01/08 07:08:14;;;;;;;20.33;10.63;;;2.40;91.50;;;;;;5016034;28;20041;-70
2022/01/08 07:10:40;;;;;;;17.63;9.57;;;2.40;91.50;;;;;;5029002;28;20041;-70
2022/01/08 07:13:05;;;;;;;17.63;9.90;;;2.40;91.60;;;;;;5031765;28;20030;-71
2022/01/08 07:15:31;;;;;;;17.42;10.48;;;2.40;91.50;;;;;;5038466;28;20042;-71
2022/01/08 07:17:58;;;;;;;15.10;9.82;;;2.50;91.60;;;;;;5020979;28;20030;-71
2022/01/08 07:20:26;;;;;;;18.30;8.88;;;2.50;91.60;;;;;;5026922;28;20038;-70
2022/01/08 07:22:53;;;;;;;16.58;9.55;;;2.50;91.60;;;;;;5033052;28;20028;-71
2022/01/08 07:25:21;;;;;;;16.80;8.38;;;2.60;91.60;;;;;;5029030;28;20033;-71
2022/01/08 07:27:50;;;;;;;18.20;8.50;;;2.60;91.60;;;;;;5026013;28;20465;-71
2022/01/08 07:30:17;;;;;;;15.77;8.38;;;2.60;91.50;;;;;;5031850;28;20057;-71
2022/01/08 07:32:48;;;;;;;18.52;8.98;;;2.70;91.40;;;;;;5031615;28;20144;-71
2022/01/08 07:35:16;;;;;;;17.15;8.43;;;2.60;91.30;;;;;;5017320;28;20052;-72
2022/01/08 07:37:44;;;;;;;15.27;8.45;;;2.70;91.40;;;;;;5016377;28;20099;-71
2022/01/08 07:40:13;;;;;;;17.45;9.25;;;2.70;91.30;;;;;;5018568;28;20037;-76
2022/01/08 07:42:40;;;;;;;16.38;9.60;;;2.70;91.30;;;;;;5015224;28;20445;-75
2022/01/08 07:45:09;;;;;;;17.35;8.55;;;2.70;91.40;;;;;;5019297;28;20030;-76
2022/01/08 07:47:37;;;;;;;15.25;9.23;;;2.70;91.30;;;;;;5013526;28;20044;-73
2022/01/08 07:50:07;;;;;;;18.00;8.93;;;2.70;91.40;;;;;;5020809;28;20045;-72
2022/01/08 07:52:34;;;;;;;15.32;9.25;;;2.70;91.40;;;;;;5021065;28;20103;-73
2022/01/08 07:55:03;;;;;;;28.90;10.13;;;2.70;91.40;;;;;;5016600;28;20045;-76
2022/01/08 07:57:30;;;;;;;17.88;9.13;;;2.70;91.30;;;;;;5015177;28;20029;-72
2022/01/08 07:59:58;;;;;;;17.17;9.23;;;2.70;91.30;;;;;;5018519;28;20115;-71
2022/01/08 08:02:25;;;;;;;14.80;8.40;;;2.70;91.30;;;;;;5019498;28;20047;-74
2022/01/08 08:04:52;;;;;;;17.02;8.50;;;2.70;91.30;;;;;;5013809;28;20030;-74
2022/01/08 08:07:40;;;;;;;18.60;8.98;;;2.70;91.30;;;;;;5019953;28;20622;-73
2022/01/08 08:10:10;;;;;;;15.35;8.65;;;2.80;91.30;;;;;;5000617;28;20052;-76
2022/01/08 08:12:38;;;;;;;18.83;10.85;;;2.80;91.30;;;;;;5023381;28;20038;-72
2022/01/08 08:15:07;;;;;;;30.50;14.15;;;2.80;91.30;;;;;;5023335;28;20040;-76
2022/01/08 08:17:34;;;;;;;20.40;7.57;;;2.80;91.30;;;;;;5021954;28;20037;-72
2022/01/08 08:20:01;;;;;;;14.05;7.50;;;2.90;91.30;;;;;;5023119;28;20059;-75
2022/01/08 08:22:30;;;;;;;14.02;8.32;;;2.90;91.20;;;;;;5022486;28;20030;-74
2022/01/08 08:24:57;;;;;;;12.48;6.85;;;2.90;91.10;;;;;;5017695;28;20057;-74
2022/01/08 08:27:22;;;;;;;12.30;6.25;;;3.00;91.00;;;;;;5012158;28;20037;-72
2022/01/08 08:29:49;;;;;;;13.50;7.53;;;3.00;91.00;;;;;;5013096;28;20476;-71
2022/01/08 08:32:14;;;;;;;15.13;7.22;;;3.00;91.00;;;;;;5011445;28;20034;-73
2022/01/08 08:34:42;;;;;;;12.27;7.07;;;3.10;90.90;;;;;;5017980;28;20072;-71
2022/01/08 08:37:08;;;;;;;15.50;7.50;;;3.00;90.90;;;;;;5013960;28;20033;-75
2022/01/08 08:39:35;;;;;;;15.48;7.10;;;3.10;90.80;;;;;;5018140;28;20098;-73
2022/01/08 08:42:01;;;;;;;12.95;6.38;;;3.20;90.70;;;;;;5017247;28;20117;-73
2022/01/08 08:44:27;;;;;;;12.75;7.00;;;3.10;90.60;;;;;;5013645;28;20105;-70
2022/01/08 08:46:55;;;;;;;14.35;6.13;;;3.20;90.60;;;;;;5018421;28;20477;-77
2022/01/08 08:49:21;;;;;;;12.57;5.60;;;3.20;90.50;;;;;;5020434;28;20047;-77
2022/01/08 08:51:47;;;;;;;15.57;6.38;;;3.20;90.30;;;;;;5007236;28;20033;-73
2022/01/08 08:54:14;;;;;;;12.05;5.88;;;3.30;90.30;;;;;;5025587;28;20029;-78
2022/01/08 08:56:42;;;;;;;11.32;5.97;;;3.30;90.30;;;;;;5016936;28;20124;-77
2022/01/08 08:59:09;;;;;;;14.00;6.15;;;3.40;90.10;;;;;;5019064;28;20556;-74
2022/01/08 09:01:35;;;;;;;14.30;5.90;;;3.30;90.00;;;;;;5017614;28;20113;-73
2022/01/08 09:04:03;;;;;;;11.77;5.95;;;3.40;89.90;;;;;;5033755;28;20109;-75
2022/01/08 09:06:30;;;;;;;11.88;6.15;;;3.30;89.90;;;;;;5024307;28;20129;-73
2022/01/08 09:08:57;;;;;;;13.02;6.13;;;3.30;89.90;;;;;;5022651;28;20116;-76
2022/01/08 09:11:24;;;;;;;14.30;6.88;;;3.30;89.90;;;;;;5014120;28;20505;-73
2022/01/08 09:13:50;;;;;;;12.55;6.47;;;3.30;89.90;;;;;;5010157;28;20044;-73
2022/01/08 09:16:17;;;;;;;12.25;6.43;;;3.30;90.00;;;;;;5024803;28;20072;-74
2022/01/08 09:18:43;;;;;;;13.05;7.07;;;3.40;90.00;;;;;;5021330;28;20445;-72
2022/01/08 09:21:12;;;;;;;14.45;7.18;;;3.40;90.00;;;;;;5022489;28;20484;-73
2022/01/08 09:23:39;;;;;;;16.05;8.00;;;3.40;90.10;;;;;;5033627;28;20025;-72
2022/01/08 09:26:05;;;;;;;19.23;8.02;;;3.40;90.10;;;;;;5033760;28;20029;-73
2022/01/08 09:28:31;;;;;;;20.45;10.13;;;3.40;90.20;;;;;;5033635;28;20087;-73
2022/01/08 09:30:58;;;;;;;19.33;10.52;;;3.40;90.40;;;;;;5019945;28;20026;-72
2022/01/08 09:33:26;;;;;;;15.30;9.13;;;3.40;90.50;;;;;;5032692;28;20052;-73
2022/01/08 09:35:53;;;;;;;18.27;9.07;;;3.40;90.70;;;;;;5014017;28;20406;-72
2022/01/08 09:38:19;;;;;;;18.95;12.90;;;3.50;90.70;;;;;;5012924;28;20030;-73
2022/01/08 09:40:45;;;;;;;18.55;9.73;;;3.50;90.80;;;;;;5014109;28;20373;-73
2022/01/08 09:43:13;;;;;;;22.55;11.15;;;3.50;90.90;;;;;;5012521;28;20034;-73
2022/01/08 09:45:39;;;;;;;17.23;10.70;;;3.50;90.90;;;;;;5020783;28;20067;-76
2022/01/08 09:48:05;;;;;;;15.77;10.23;;;3.50;91.00;;;;;;5017751;28;20582;-77
2022/01/08 09:50:31;;;;;;;14.20;8.50;;;3.50;91.00;;;;;;5010747;28;20037;-76
2022/01/08 09:52:58;;;;;;;15.20;8.35;;;3.50;90.90;;;;;;5009121;28;20469;-74
2022/01/08 09:55:26;;;;;;;19.85;8.90;;;3.50;91.10;;;;;;5020932;28;20044;-74
2022/01/08 09:57:53;;;;;;;15.55;8.10;;;3.50;91.10;;;;;;5016954;28;20041;-73
2022/01/08 10:00:20;;;;;;;15.07;8.40;;;3.50;91.30;;;;;;5022596;28;20042;-72
2022/01/08 10:02:46;;;;;;;14.65;8.55;;;3.60;91.40;;;;;;5021161;28;20064;-73
2022/01/08 10:05:17;;;;;;;17.20;8.10;;;3.60;91.40;;;;;;5016042;28;20064;-80
2022/01/08 10:07:56;;;;;;;16.05;7.95;;;3.60;91.60;;;;;;5013049;28;20104;-75
2022/01/08 10:10:22;;;;;;;15.75;8.43;;;3.60;91.60;;;;;;5016871;28;20464;-72
2022/01/08 10:13:00;;;;;;;15.43;8.23;;;3.60;91.70;;;;;;5019773;28;20116;-79
2022/01/08 10:18:35;;;;;;;15.32;6.90;;;3.60;91.70;;;;;;5017615;28;20056;-72
2022/01/08 10:21:14;;;;;;;11.68;6.45;;;3.70;91.70;;;;;;5011794;28;20598;-77
2022/01/08 10:23:43;;;;;;;14.10;7.03;;;3.70;91.80;;;;;;5018921;28;20180;-73
2022/01/08 10:26:10;;;;;;;19.95;6.90;;;3.80;91.90;;;;;;5016828;28;20057;-75
2022/01/08 10:28:56;;;;;;;18.25;7.75;;;3.80;91.80;;;;;;5013371;28;20469;-74
2022/01/08 10:31:29;;;;;;;17.60;6.93;;;3.90;91.90;;;;;;5015275;28;20040;-77
2022/01/08 10:34:06;;;;;;;14.07;7.35;;;4.00;91.80;;;;;;5020433;28;20048;-74
2022/01/08 10:36:35;;;;;;;15.35;7.10;;;4.00;91.90;;;;;;5020486;28;20469;-75
2022/01/08 10:39:10;;;;;;;14.30;7.32;;;4.10;91.90;;;;;;5014775;28;20046;-74
2022/01/08 10:41:42;;;;;;;16.77;7.85;;;4.10;91.90;;;;;;5019413;28;20038;-74
2022/01/08 10:44:21;;;;;;;16.35;8.35;;;4.10;91.90;;;;;;5016850;28;20467;-79
2022/01/08 10:47:04;;;;;;;18.35;8.45;;;4.20;91.90;;;;;;5017189;28;20038;-73
2022/01/08 10:49:39;;;;;;;16.90;8.55;;;4.20;91.80;;;;;;5016394;28;20479;-77
2022/01/08 10:52:22;;;;;;;14.98;9.18;;;4.30;91.80;;;;;;5012548;28;20034;-78
2022/01/08 10:54:59;;;;;;;18.17;9.05;;;4.30;91.70;;;;;;5004087;28;20064;-75
2022/01/08 10:57:36;;;;;;;19.27;9.90;;;4.30;91.90;;;;;;5015014;28;20038;-75
2022/01/08 11:00:11;;;;;;;15.05;9.18;;;4.30;92.00;;;;;;5007399;28;20472;-74
2022/01/08 11:02:38;;;;;;;;;;;4.40;92.00;;;;;;5011743;28;20037;-73
2022/01/08 11:05:08;;;;;;;19.90;9.40;;;4.40;92.10;;;;;;5034861;28;20408;-77
2022/01/08 11:07:35;;;;;;;18.23;9.40;;;4.40;92.00;;;;;;5014986;28;20048;-80
2022/01/08 11:10:06;;;;;;;16.15;9.43;;;4.50;92.10;;;;;;5009386;28;20277;-77
2022/01/08 11:12:39;;;;;;;17.17;9.52;;;4.50;92.00;;;;;;5021468;28;20029;-79
2022/01/08 11:17:55;;;;;;;14.98;10.18;;;4.50;92.10;;;;;;5003792;28;20534;-74
2022/01/08 11:20:29;;;;;;;16.77;10.90;;;4.60;92.20;;;;;;5017484;28;20382;-84
2022/01/08 11:22:57;;;;;;;17.67;10.77;;;4.50;92.20;;;;;;5017568;28;20449;-79
2022/01/08 11:25:36;;;;;;;16.77;10.57;;;4.60;92.30;;;;;;5014601;28;20057;-73
2022/01/08 11:28:11;;;;;;;16.40;10.57;;;4.50;92.40;;;;;;5010272;28;20026;-74
2022/01/08 11:30:45;;;;;;;15.27;10.75;;;4.50;92.50;;;;;;5018923;28;20030;-74
2022/01/08 11:33:17;;;;;;;16.17;11.25;;;4.50;92.50;;;;;;5006681;28;20533;-81
2022/01/08 11:35:45;;;;;;;15.02;10.57;;;4.50;92.50;;;;;;5011965;28;20045;-76
2022/01/08 11:38:13;;;;;;;18.35;12.52;;;4.50;92.50;;;;;;5008510;28;20046;-73
2022/01/08 11:40:45;;;;;;;18.38;11.93;;;4.50;92.50;;;;;;5010164;28;20033;-76
2022/01/08 11:43:12;;;;;;;16.17;12.15;;;4.60;92.50;;;;;;5016008;28;20095;-75
2022/01/08 11:45:48;;;;;;;18.48;13.10;;;4.60;92.50;;;;;;5016844;28;20495;-81
2022/01/08 11:48:18;;;;;;;18.58;12.32;;;4.60;92.70;;;;;;5011766;28;20037;-74
2022/01/08 11:50:56;;;;;;;19.90;12.63;;;4.60;92.80;;;;;;5014683;28;20536;-74
2022/01/08 11:53:29;;;;;;;16.83;12.65;;;4.60;92.80;;;;;;5015903;28;20083;-77
2022/01/08 11:56:05;;;;;;;17.83;13.23;;;4.60;92.80;;;;;;5035340;28;20114;-78
2022/01/08 11:58:35;;;;;;;16.05;13.02;;;4.70;93.00;;;;;;5013124;28;20114;-81
2022/01/08 12:01:12;;;;;;;18.80;12.50;;;4.70;93.00;;;;;;5010264;28;20032;-82
2022/01/08 12:03:52;;;;;;;17.80;13.70;;;4.70;93.00;;;;;;5021689;28;20048;-73
2022/01/08 12:06:26;;;;;;;17.85;14.65;;;4.80;93.10;;;;;;5011242;28;20607;-77
2022/01/08 12:09:07;;;;;;;20.80;14.48;;;4.90;93.10;;;;;;5012128;28;20137;-80
2022/01/08 12:11:42;;;;;;;17.58;13.85;;;4.90;93.10;;;;;;5010541;28;20050;-79
2022/01/08 12:14:09;;;;;;;;;;;5.00;93.10;;;;;;5015327;28;20073;-75
2022/01/08 12:16:36;;;;;;;21.33;14.95;;;5.10;93.20;;;;;;5010734;28;19929;-77
2022/01/08 12:19:04;;;;;;;20.10;14.88;;;5.10;93.10;;;;;;5012484;28;20043;-75
2022/01/08 12:21:34;;;;;;;21.92;15.15;;;5.10;93.00;;;;;;5009849;28;20040;-75
2022/01/08 12:24:26;;;;;;;18.23;14.30;;;5.10;92.90;;;;;;5014530;28;20033;-78
2022/01/08 12:26:52;;;;;;;22.13;15.35;;;5.20;93.00;;;;;;5011561;28;20674;-78
2022/01/08 12:29:37;;;;;;;20.92;14.65;;;5.20;93.00;;;;;;5027596;28;20048;-74
2022/01/08 12:32:27;;;;;;;23.88;15.90;;;5.20;93.00;;;;;;5015403;28;20116;-75
2022/01/08 12:35:01;;;;;;;22.30;15.55;;;5.30;93.00;;;;;;5020738;28;20053;-75
2022/01/08 12:37:41;;;;;;;22.30;17.00;;;5.20;93.10;;;;;;5018865;28;20052;-76
2022/01/08 12:40:10;;;;;;;25.75;17.58;;;5.30;93.20;;;;;;5015043;28;20061;-85
2022/01/08 12:42:44;;;;;;;26.00;16.92;;;5.30;93.20;;;;;;5014863;28;20044;-77
2022/01/08 12:45:14;;;;;;;24.07;17.30;;;5.30;93.30;;;;;;5015222;28;20029;-74
2022/01/08 12:47:55;;;;;;;24.10;16.30;;;5.40;93.20;;;;;;5016226;28;20300;-77
2022/01/08 12:50:35;;;;;;;25.60;17.35;;;5.50;93.30;;;;;;5007611;28;20456;-79
2022/01/08 12:53:06;;;;;;;21.25;16.38;;;5.60;93.20;;;;;;5025234;28;20441;-79
2022/01/08 12:55:44;;;;;;;29.38;17.33;;;5.60;93.30;;;;;;5013211;28;20500;-77
2022/01/08 12:58:24;;;;;;;27.35;17.52;;;5.60;93.30;;;;;;5017003;28;20038;-74
2022/01/08 13:00:53;;;;;;;31.92;20.15;;;5.70;93.30;;;;;;5017817;28;20385;-79
2022/01/08 13:03:33;;;;;;;29.48;19.15;;;5.70;93.40;;;;;;5013075;28;20129;-80
2022/01/08 13:06:02;;;;;;;29.80;18.08;;;5.80;93.40;;;;;;5014999;28;20049;-81
2022/01/08 13:08:30;;;;;;;26.90;15.65;;;5.90;93.40;;;;;;5017077;28;20042;-74
2022/01/08 13:11:00;;;;;;;31.45;16.45;;;6.00;93.30;;;;;;5015780;28;20030;-78
2022/01/08 13:13:45;;;;;;;30.00;15.57;;;6.00;93.30;;;;;;5016048;28;20040;-78
2022/01/08 13:16:30;;;;;;;22.75;14.80;;;6.10;93.30;;;;;;5018517;28;20491;-81
2022/01/08 13:19:02;;;;;;;29.55;15.88;;;6.10;93.30;;;;;;5018478;28;20547;-74
2022/01/08 13:21:38;;;;;;;24.98;15.40;;;6.10;93.30;;;;;;5016620;28;20049;-78